Time;durP1;ratioP1;P1;durP2;ratioP2;P2;SDS_P1;SDS_P2;PMS_P1;PMS_P2;Temp;Humidity;BMP_temperature;BMP_pressure;BME280_temperature;BME280_humidity;BME280_pressure;Samples;Min_cycle;Max_cycle;Signal;HPM_P1;HPM_P2
2023/09/05 00:02:17;;;;;;;;;;;24.90;24.20;;;;;;5111519;28;20276;-67
2023/09/05 00:04:46;;;;;;;;;;;25.00;22.60;;;;;;5110304;28;20223;-69
2023/09/05 00:07:13;;;;;;;;;;;25.20;22.70;;;;;;5111294;28;20255;-68
2023/09/05 00:09:40;;;;;;;;;;;25.30;20.10;;;;;;5111128;28;20315;-67
2023/09/05 00:12:07;;;;;;;;;;;25.10;19.60;;;;;;5110419;28;20705;-69
2023/09/05 00:14:35;;;;;;;;;;;25.50;20.20;;;;;;5110896;28;20167;-67
2023/09/05 00:17:02;;;;;;;;;;;26.00;17.90;;;;;;5111104;28;20182;-67
2023/09/05 00:19:29;;;;;;;;;;;26.10;14.70;;;;;;5110427;28;20171;-68
2023/09/05 00:21:56;;;;;;;;;;;25.80;8.60;;;;;;5092793;28;20533;-69
2023/09/05 00:24:33;;;;;;;;;;;25.80;8.40;;;;;;5110561;28;20645;-68
2023/09/05 00:27:00;;;;;;;;;;;26.00;8.50;;;;;;5111139;28;20648;-67
2023/09/05 00:29:29;;;;;;;;;;;25.50;3.40;;;;;;5110559;28;20303;-68
2023/09/05 00:32:00;;;;;;;;;;;25.50;2.80;;;;;;5110026;28;20236;-68
2023/09/05 00:34:27;;;;;;;;;;;25.50;1.00;;;;;;5110147;28;20171;-68
2023/09/05 00:36:54;;;;;;;;;;;25.80;1.70;;;;;;5110594;28;20172;-68
2023/09/05 00:39:22;;;;;;;0.77;0.40;;;25.30;1.00;;;;;;5111723;28;20484;-67
2023/09/05 00:41:49;;;;;;;2.30;0.40;;;25.60;1.00;;;;;;5111301;28;20170;-68
2023/09/05 00:44:17;;;;;;;;;;;25.80;1.00;;;;;;5111485;28;20164;-68
2023/09/05 00:46:49;;;;;;;0.53;0.30;;;25.70;1.00;;;;;;5111342;28;20829;-68
2023/09/05 00:49:18;;;;;;;3.13;0.53;;;25.70;1.00;;;;;;5110856;28;20203;-68
2023/09/05 00:51:50;;;;;;;0.50;0.30;;;25.70;1.00;;;;;;5111293;28;20663;-67
2023/09/05 00:54:18;;;;;;;1.23;0.30;;;26.00;1.00;;;;;;5111205;28;20178;-68
2023/09/05 00:56:45;;;;;;;;;;;25.80;1.00;;;;;;5110535;28;20167;-68
2023/09/05 00:59:12;;;;;;;;;;;25.40;1.00;;;;;;5110343;28;20173;-67
2023/09/05 01:01:40;;;;;;;0.27;0.23;;;25.90;1.00;;;;;;5111217;28;20046;-67
2023/09/05 01:04:07;;;;;;;;;;;26.10;1.00;;;;;;5111107;28;20158;-70
2023/09/05 01:06:46;;;;;;;;;;;26.00;1.00;;;;;;5110858;28;20178;-68
2023/09/05 01:09:27;;;;;;;;;;;26.20;1.00;;;;;;5109898;28;20834;-70
2023/09/05 01:11:55;;;;;;;;;;;26.30;1.00;;;;;;5110498;28;20614;-70
2023/09/05 01:14:22;;;;;;;;;;;26.70;1.00;;;;;;5111078;28;20542;-69
2023/09/05 01:16:49;;;;;;;;;;;27.20;1.00;;;;;;5113147;28;20160;-69
2023/09/05 01:19:17;;;;;;;;;;;26.60;1.00;;;;;;5114470;28;20163;-69
2023/09/05 01:21:59;;;;;;;;;;;26.70;1.00;;;;;;5113937;28;20149;-70
2023/09/05 01:24:26;;;;;;;;;;;27.20;1.00;;;;;;5113651;28;20222;-69
2023/09/05 01:26:53;;;;;;;;;;;27.30;1.00;;;;;;5114998;28;20172;-70
2023/09/05 01:29:34;;;;;;;;;;;27.30;1.00;;;;;;5114081;28;20669;-69
2023/09/05 01:32:02;;;;;;;;;;;27.30;1.00;;;;;;5114190;28;20183;-68
2023/09/05 01:34:30;;;;;;;;;;;27.20;1.00;;;;;;5115091;28;20174;-70
2023/09/05 01:36:57;;;;;;;;;;;27.60;1.00;;;;;;5115018;28;20168;-70
2023/09/05 01:39:24;;;;;;;;;;;28.10;1.00;;;;;;5113994;28;20259;-69
2023/09/05 01:41:51;;;;;;;;;;;27.60;1.00;;;;;;5114139;28;20142;-70
2023/09/05 01:44:18;;;;;;;;;;;27.00;1.00;;;;;;5114837;28;20170;-70
2023/09/05 01:46:45;;;;;;;;;;;27.60;1.00;;;;;;5114254;28;20185;-70
2023/09/05 01:49:12;;;;;;;;;;;27.50;1.00;;;;;;5114484;28;20290;-70
2023/09/05 01:51:39;;;;;;;;;;;27.80;1.00;;;;;;5114251;28;20158;-70
2023/09/05 01:54:06;;;;;;;;;;;27.60;1.00;;;;;;5114169;28;20200;-68
2023/09/05 01:56:32;;;;;;;;;;;27.50;1.00;;;;;;5114188;28;20170;-68
2023/09/05 01:58:59;;;;;;;;;;;27.30;1.00;;;;;;5114822;28;20172;-69
2023/09/05 02:01:27;;;;;;;;;;;27.40;1.00;;;;;;5095026;28;20204;-71
2023/09/05 02:03:54;;;;;;;;;;;27.50;1.00;;;;;;5114454;28;20147;-69
2023/09/05 02:06:22;;;;;;;0.30;0.20;;;27.70;1.00;;;;;;5113634;28;20187;-68
2023/09/05 02:08:50;;;;;;;1.97;0.40;;;28.20;1.00;;;;;;5113195;28;20537;-68
2023/09/05 02:11:18;;;;;;;0.57;0.50;;;28.50;1.00;;;;;;5095894;28;20213;-69
2023/09/05 02:13:46;;;;;;;0.47;0.43;;;28.20;1.00;;;;;;5114061;28;20174;-69
2023/09/05 02:16:18;;;;;;;1.23;0.40;;;28.30;1.00;;;;;;5113128;28;20315;-69
2023/09/05 02:18:47;;;;;;;1.50;0.20;;;28.20;1.00;;;;;;5114035;28;20581;-69
2023/09/05 02:21:15;;;;;;;0.60;0.30;;;27.90;1.00;;;;;;5113855;28;20179;-69
2023/09/05 02:23:44;;;;;;;1.60;0.23;;;28.50;1.00;;;;;;5112970;28;20661;-68
2023/09/05 02:26:13;;;;;;;0.27;0.20;;;28.40;1.00;;;;;;5113060;28;20210;-69
2023/09/05 02:28:40;;;;;;;1.50;0.30;;;28.40;1.00;;;;;;5112753;28;20183;-68
2023/09/05 02:31:08;;;;;;;1.03;0.30;;;28.60;1.00;;;;;;5112962;28;20214;-69
2023/09/05 02:33:37;;;;;;;0.40;0.30;;;28.30;1.00;;;;;;5113651;28;20627;-69
2023/09/05 02:36:17;;;;;;;2.50;0.50;;;27.90;1.00;;;;;;5113119;28;20174;-70
2023/09/05 02:38:45;;;;;;;0.20;0.20;;;28.10;1.00;;;;;;5113174;28;20176;-69
2023/09/05 02:41:14;;;;;;;3.93;0.40;;;28.10;1.00;;;;;;5113555;28;20533;-71
2023/09/05 02:43:42;;;;;;;1.30;0.40;;;28.60;1.00;;;;;;5113497;28;20178;-68
2023/09/05 02:46:10;;;;;;;2.03;0.60;;;28.50;1.00;;;;;;5112410;28;20270;-70
2023/09/05 02:48:42;;;;;;;1.20;0.40;;;28.50;1.00;;;;;;5113105;28;20249;-68
2023/09/05 02:51:11;;;;;;;1.10;0.40;;;28.00;1.00;;;;;;5113305;28;20194;-69
2023/09/05 02:53:40;;;;;;;1.53;0.40;;;27.40;1.00;;;;;;5112843;28;20167;-71
2023/09/05 02:56:08;;;;;;;4.20;0.40;;;27.80;1.00;;;;;;5112775;28;20613;-71
2023/09/05 02:58:35;;;;;;;0.30;0.30;;;27.50;1.00;;;;;;5113299;28;20218;-69
2023/09/05 03:01:11;;;;;;;0.43;0.20;;;28.00;1.00;;;;;;5112609;28;20183;-68
2023/09/05 03:03:39;;;;;;;1.67;0.30;;;28.50;1.00;;;;;;5112857;28;20178;-69
2023/09/05 03:09:30;;;;;;;0.30;0.30;;;27.90;1.00;;;;;;5111682;28;20267;-69
2023/09/05 03:11:58;;;;;;;0.30;0.30;;;27.70;1.00;;;;;;5112953;28;20171;-70
2023/09/05 03:14:25;;;;;;;1.37;0.30;;;27.80;1.00;;;;;;5112738;28;20632;-70
2023/09/05 03:17:26;;;;;;;0.30;0.20;;;27.70;1.00;;;;;;5112061;28;20320;-69
2023/09/05 03:19:54;;;;;;;1.33;0.30;;;28.10;1.00;;;;;;5112734;28;20170;-72
2023/09/05 03:22:22;;;;;;;1.67;0.20;;;28.50;1.00;;;;;;5111930;28;20186;-72
2023/09/05 03:24:49;;;;;;;2.83;0.50;;;28.30;1.00;;;;;;5112503;28;20220;-69
2023/09/05 03:27:17;;;;;;;2.13;0.30;;;28.00;1.00;;;;;;5112489;28;20644;-68
2023/09/05 03:29:44;;;;;;;0.53;0.20;;;27.70;1.00;;;;;;5111898;28;20648;-68
2023/09/05 03:32:12;;;;;;;0.97;0.30;;;27.40;1.00;;;;;;5112515;28;20303;-68
2023/09/05 03:34:48;;;;;;;0.77;0.30;;;27.80;1.00;;;;;;5111976;28;20179;-69
2023/09/05 03:37:16;;;;;;;0.93;0.33;;;27.80;1.00;;;;;;5107284;28;20190;-69
2023/09/05 03:39:44;;;;;;;1.27;0.27;;;27.60;1.00;;;;;;5091562;28;20270;-68
2023/09/05 03:42:12;;;;;;;0.43;0.30;;;27.40;1.00;;;;;;5092114;28;20171;-72
2023/09/05 03:44:39;;;;;;;0.93;0.30;;;27.80;1.00;;;;;;5092000;28;20262;-67
2023/09/05 03:47:07;;;;;;;1.47;0.30;;;28.00;1.00;;;;;;5091989;28;20211;-70
2023/09/05 03:49:35;;;;;;;1.47;0.30;;;27.90;1.00;;;;;;5091888;28;20218;-69
2023/09/05 03:52:03;;;;;;;1.53;0.30;;;27.90;1.00;;;;;;5091436;28;20214;-71
2023/09/05 03:54:30;;;;;;;0.43;0.30;;;28.00;1.00;;;;;;5091976;28;20496;-70
2023/09/05 03:56:58;;;;;;;0.60;0.30;;;28.00;1.00;;;;;;5111493;28;20213;-69
2023/09/05 03:59:25;;;;;;;1.13;0.27;;;27.70;1.00;;;;;;5111538;28;20162;-68
2023/09/05 04:01:53;;;;;;;0.40;0.30;;;27.50;1.00;;;;;;5112102;28;20182;-69
2023/09/05 04:04:21;;;;;;;2.70;0.30;;;27.10;1.00;;;;;;5112001;28;20652;-71
2023/09/05 04:06:48;;;;;;;0.40;0.30;;;27.20;1.00;;;;;;5111175;28;20179;-69
2023/09/05 04:09:16;;;;;;;2.47;0.40;;;27.30;1.00;;;;;;5111912;28;20301;-69
2023/09/05 04:11:44;;;;;;;1.63;0.47;;;27.50;1.00;;;;;;5112061;28;20185;-67
2023/09/05 04:14:11;;;;;;;1.63;0.50;;;27.50;1.00;;;;;;5111133;28;20273;-70
2023/09/05 04:16:39;;;;;;;1.40;0.50;;;27.10;1.00;;;;;;5111673;28;20261;-68
2023/09/05 04:19:08;;;;;;;0.40;0.30;;;27.40;1.00;;;;;;5111636;28;20261;-70
2023/09/05 04:21:36;;;;;;;0.93;0.50;;;27.70;1.00;;;;;;5093127;28;20178;-67
2023/09/05 04:24:03;;;;;;;0.70;0.30;;;27.40;1.00;;;;;;5111443;28;20313;-70
2023/09/05 04:26:33;;;;;;;0.63;0.30;;;27.50;1.00;;;;;;5111419;28;20175;-68
2023/09/05 04:29:01;;;;;;;5.73;0.30;;;27.50;1.00;;;;;;5111246;28;20189;-72
2023/09/05 04:31:29;;;;;;;1.47;0.50;;;27.10;1.00;;;;;;5111733;28;20179;-71
2023/09/05 04:33:56;;;;;;;2.27;0.57;;;26.90;1.00;;;;;;5111545;28;20178;-71
2023/09/05 04:36:25;;;;;;;0.87;0.47;;;27.10;1.00;;;;;;5111312;28;20189;-70
2023/09/05 04:38:53;;;;;;;1.43;0.60;;;26.60;1.00;;;;;;5111594;28;20579;-72
2023/09/05 04:41:21;;;;;;;5.90;0.33;;;26.70;1.00;;;;;;5111554;28;20182;-71
2023/09/05 04:43:49;;;;;;;1.40;0.50;;;26.30;1.00;;;;;;5110705;28;20178;-69
2023/09/05 04:46:16;;;;;;;2.33;0.33;;;26.40;1.00;;;;;;5109171;28;20204;-67
2023/09/05 04:48:44;;;;;;;2.70;0.47;;;26.30;1.00;;;;;;5110703;28;20194;-68
2023/09/05 04:51:12;;;;;;;0.63;0.20;;;26.40;1.00;;;;;;5112754;28;20285;-70
2023/09/05 04:53:40;;;;;;;2.57;0.30;;;26.60;1.00;;;;;;5102203;28;20215;-68
2023/09/05 04:56:07;;;;;;;1.83;0.33;;;26.60;1.00;;;;;;5095509;28;20274;-68
2023/09/05 04:58:35;;;;;;;2.43;0.30;;;26.30;1.00;;;;;;5094936;28;20704;-68
2023/09/05 05:01:03;;;;;;;1.27;0.30;;;26.20;1.00;;;;;;5107625;28;20218;-68
2023/09/05 05:03:34;;;;;;;0.50;0.30;;;26.00;1.00;;;;;;5114704;28;20224;-68
2023/09/05 05:06:02;;;;;;;0.77;0.40;;;26.00;1.00;;;;;;5114424;28;20182;-67
2023/09/05 05:08:30;;;;;;;3.47;0.40;;;25.80;1.00;;;;;;5096898;28;20781;-68
2023/09/05 05:10:58;;;;;;;1.97;0.47;;;25.50;1.00;;;;;;5115155;28;20225;-67
2023/09/05 05:13:26;;;;;;;0.40;0.40;;;25.40;1.00;;;;;;5114355;28;20182;-66
2023/09/05 05:15:53;;;;;;;1.80;0.50;;;25.20;1.00;;;;;;5115230;28;20179;-69
2023/09/05 05:18:21;;;;;;;0.83;0.40;;;25.20;1.00;;;;;;5115447;28;20180;-68
2023/09/05 05:20:49;;;;;;;0.63;0.30;;;25.10;1.00;;;;;;5116342;28;20186;-69
2023/09/05 05:23:16;;;;;;;0.90;0.30;;;25.20;1.00;;;;;;5114563;28;20309;-68
2023/09/05 05:25:44;;;;;;;1.10;0.40;;;25.30;1.00;;;;;;5116201;28;20232;-68
2023/09/05 05:28:12;;;;;;;0.57;0.40;;;25.30;1.00;;;;;;5116499;28;20566;-69
2023/09/05 05:30:40;;;;;;;0.30;0.30;;;25.30;1.00;;;;;;5116631;28;20210;-68
2023/09/05 05:33:07;;;;;;;1.03;0.30;;;25.30;1.00;;;;;;5116130;28;20185;-68
2023/09/05 05:35:36;;;;;;;2.47;2.27;;;25.20;1.00;;;;;;5116402;28;20636;-68
2023/09/05 05:38:03;;;;;;;0.70;0.30;;;25.20;1.00;;;;;;5116317;28;20182;-67
2023/09/05 05:40:31;;;;;;;1.90;0.40;;;25.10;1.00;;;;;;5116399;28;20175;-68
2023/09/05 05:42:59;;;;;;;0.50;0.30;;;25.10;1.00;;;;;;5115805;28;20174;-68
2023/09/05 05:45:26;;;;;;;0.43;0.40;;;25.20;1.00;;;;;;5116391;28;20178;-67
2023/09/05 05:47:56;;;;;;;1.13;0.40;;;25.10;1.00;;;;;;5116445;28;20167;-69
2023/09/05 05:50:24;;;;;;;3.07;0.50;;;25.10;1.00;;;;;;5115880;28;20214;-68
2023/09/05 05:52:52;;;;;;;2.63;0.50;;;25.00;1.00;;;;;;5099920;28;20194;-67
2023/09/05 05:55:20;;;;;;;4.30;0.50;;;24.70;1.00;;;;;;5107771;28;20179;-68
2023/09/05 05:57:47;;;;;;;0.23;0.23;;;24.60;1.00;;;;;;5116688;27;20673;-66
2023/09/05 06:00:15;;;;;;;1.27;0.30;;;24.50;1.00;;;;;;5119861;27;20171;-67
2023/09/05 06:02:43;;;;;;;0.40;0.30;;;24.40;1.00;;;;;;5122669;27;20558;-67
2023/09/05 06:05:10;;;;;;;3.90;0.50;;;24.30;1.00;;;;;;5124515;27;20265;-67
2023/09/05 06:07:38;;;;;;;0.30;0.30;;;24.20;1.00;;;;;;5123086;27;20637;-67
2023/09/05 06:10:06;;;;;;;0.70;0.40;;;24.10;1.00;;;;;;5122681;27;20204;-68
2023/09/05 06:12:34;;;;;;;4.43;0.40;;;24.10;1.00;;;;;;5121670;27;20673;-68
2023/09/05 06:15:02;;;;;;;0.30;0.30;;;24.10;1.00;;;;;;5114358;27;20186;-68
2023/09/05 06:17:30;;;;;;;2.47;0.47;;;24.00;1.00;;;;;;5115312;27;20262;-67
2023/09/05 06:19:57;;;;;;;5.03;0.50;;;23.90;1.00;;;;;;5125129;27;20170;-68
2023/09/05 06:22:25;;;;;;;1.43;0.40;;;23.80;1.00;;;;;;5116232;27;20182;-69
2023/09/05 06:24:53;;;;;;;0.33;0.30;;;23.80;1.00;;;;;;5113167;28;20268;-68
2023/09/05 06:27:21;;;;;;;2.53;0.53;;;23.70;1.00;;;;;;5101155;27;20228;-68
2023/09/05 06:29:48;;;;;;;2.33;0.50;;;23.70;1.00;;;;;;5134027;27;20206;-67
2023/09/05 06:32:17;;;;;;;6.17;0.70;;;23.50;1.00;;;;;;5118125;27;20727;-69
2023/09/05 06:34:46;;;;;;;2.37;0.47;;;23.60;1.00;;;;;;5113094;28;20183;-68
2023/09/05 06:37:13;;;;;;;0.87;0.40;;;23.60;1.00;;;;;;5113123;28;20227;-68
2023/09/05 06:39:41;;;;;;;1.00;0.50;;;23.50;1.00;;;;;;5112779;28;20203;-67
2023/09/05 06:42:10;;;;;;;1.27;1.17;;;23.40;1.00;;;;;;5112470;28;20705;-68
2023/09/05 06:44:37;;;;;;;0.80;0.40;;;23.40;1.00;;;;;;5112895;28;20194;-68
2023/09/05 06:47:05;;;;;;;3.93;0.80;;;23.20;1.00;;;;;;5112121;28;20185;-70
2023/09/05 06:52:55;;;;;;;1.07;0.50;;;23.00;1.00;;;;;;5112017;28;20561;-70
2023/09/05 06:55:22;;;;;;;0.83;0.50;;;23.20;1.00;;;;;;5113027;28;20185;-67
2023/09/05 06:57:50;;;;;;;2.57;0.50;;;23.10;1.00;;;;;;5112559;28;20208;-69
2023/09/05 07:00:18;;;;;;;2.00;0.50;;;23.00;1.00;;;;;;5112330;28;20185;-68
2023/09/05 07:02:46;;;;;;;1.07;0.50;;;22.90;1.00;;;;;;5112844;28;20311;-67
2023/09/05 07:05:14;;;;;;;1.53;0.40;;;22.80;1.00;;;;;;5112680;28;20186;-69
2023/09/05 07:07:41;;;;;;;0.73;0.40;;;22.60;1.00;;;;;;5111815;28;20273;-69
2023/09/05 07:10:09;;;;;;;0.30;0.30;;;22.40;1.00;;;;;;5112068;28;20340;-68
2023/09/05 07:12:37;;;;;;;0.50;0.37;;;22.20;1.00;;;;;;5111904;28;20181;-68
2023/09/05 07:15:06;;;;;;;9.43;1.00;;;22.10;1.00;;;;;;5113503;28;20267;-67
2023/09/05 07:17:34;;;;;;;1.13;0.37;;;21.90;1.00;;;;;;5113558;28;20188;-68
2023/09/05 07:20:02;;;;;;;1.30;0.47;;;21.70;1.00;;;;;;5116622;27;20258;-68
2023/09/05 07:22:29;;;;;;;1.10;0.50;;;21.60;1.00;;;;;;5095348;28;20647;-68
2023/09/05 07:24:57;;;;;;;2.47;0.60;;;21.40;1.00;;;;;;5113993;28;20178;-68
2023/09/05 07:27:25;;;;;;;1.50;0.40;;;21.40;1.00;;;;;;5113854;28;20262;-69
2023/09/05 07:29:52;;;;;;;2.30;0.50;;;21.20;1.00;;;;;;5114021;28;20206;-69
2023/09/05 07:32:20;;;;;;;5.00;0.43;;;21.10;1.00;;;;;;5113219;28;20723;-66
2023/09/05 07:34:49;;;;;;;4.07;0.67;;;21.00;1.00;;;;;;5113445;28;20243;-67
2023/09/05 07:37:17;;;;;;;1.07;0.40;;;20.90;1.00;;;;;;5114530;27;20263;-68
2023/09/05 07:39:49;;;;;;;4.87;0.57;;;20.90;1.00;;;;;;5113540;28;20217;-67
2023/09/05 07:42:17;;;;;;;2.40;0.50;;;20.70;1.00;;;;;;5113517;28;20234;-68
2023/09/05 07:44:45;;;;;;;1.50;0.40;;;20.60;1.00;;;;;;5112978;28;20503;-68
2023/09/05 07:47:13;;;;;;;0.60;0.50;;;20.50;1.00;;;;;;5113773;28;20213;-68
2023/09/05 07:49:44;;;;;;;1.30;0.50;;;20.30;1.00;;;;;;5113514;28;20306;-68
2023/09/05 07:52:12;;;;;;;3.43;0.70;;;20.20;1.00;;;;;;5113332;28;20182;-68
2023/09/05 07:54:40;;;;;;;1.00;0.60;;;20.20;1.00;;;;;;5113169;28;20589;-68
2023/09/05 07:57:07;;;;;;;1.80;0.77;;;20.00;1.00;;;;;;5113052;28;20215;-69
2023/09/05 07:59:35;;;;;;;2.00;0.80;;;20.00;1.00;;;;;;5113119;28;20258;-67
2023/09/05 08:02:04;;;;;;;0.80;0.50;;;19.90;1.00;;;;;;5113076;28;20174;-68
2023/09/05 08:04:32;;;;;;;1.23;0.60;;;19.90;1.00;;;;;;5112695;28;20178;-67
2023/09/05 08:06:59;;;;;;;4.53;1.00;;;19.80;1.00;;;;;;5133245;27;20234;-67
2023/09/05 08:09:27;;;;;;;2.23;0.63;;;19.70;1.00;;;;;;5114280;28;20248;-67
2023/09/05 08:11:55;;;;;;;3.77;1.53;;;19.60;1.00;;;;;;5097175;28;20814;-67
2023/09/05 08:14:22;;;;;;;5.20;0.70;;;19.50;1.00;;;;;;5104047;28;20178;-68
2023/09/05 08:16:50;;;;;;;1.30;0.60;;;19.40;1.00;;;;;;5110899;28;20304;-68
2023/09/05 08:19:18;;;;;;;0.90;0.60;;;19.30;1.00;;;;;;5111331;28;20187;-67
2023/09/05 08:21:45;;;;;;;1.70;0.60;;;19.20;1.00;;;;;;5111059;28;20174;-68
2023/09/05 08:24:13;;;;;;;3.17;0.70;;;19.30;1.00;;;;;;5111740;28;20660;-69
2023/09/05 08:26:41;;;;;;;1.73;0.60;;;19.30;1.00;;;;;;5115462;28;20655;-68
2023/09/05 08:29:08;;;;;;;2.27;0.43;;;19.10;1.00;;;;;;5096721;28;20302;-68
2023/09/05 08:31:36;;;;;;;0.93;0.50;;;19.00;1.00;;;;;;5115575;28;20194;-68
2023/09/05 08:34:04;;;;;;;0.90;0.50;;;18.90;1.00;;;;;;5115692;28;20266;-69
2023/09/05 08:36:32;;;;;;;1.00;0.43;;;18.80;1.00;;;;;;5114705;28;20659;-68
2023/09/05 08:39:00;;;;;;;0.40;0.40;;;18.70;1.00;;;;;;5115379;28;20182;-68
2023/09/05 08:41:28;;;;;;;0.70;0.70;;;18.60;1.00;;;;;;5115568;28;20206;-67
2023/09/05 08:43:57;;;;;;;3.13;0.63;;;18.60;1.00;;;;;;5115172;28;20167;-67
2023/09/05 08:46:26;;;;;;;0.93;0.50;;;18.50;1.00;;;;;;5115508;28;20190;-68
2023/09/05 08:48:54;;;;;;;1.30;0.60;;;18.40;1.00;;;;;;5114758;28;20193;-67
2023/09/05 08:51:26;;;;;;;0.83;0.50;;;18.40;1.00;;;;;;5114799;28;20191;-67
2023/09/05 08:53:59;;;;;;;2.03;0.60;;;18.30;1.00;;;;;;5097283;28;20222;-69
2023/09/05 08:56:27;;;;;;;1.03;0.50;;;18.20;1.00;;;;;;5114962;28;20181;-67
2023/09/05 08:58:57;;;;;;;2.73;0.70;;;18.00;1.00;;;;;;5114294;28;20604;-67
2023/09/05 09:01:26;;;;;;;1.90;0.50;;;17.80;1.00;;;;;;5115013;28;20172;-68
2023/09/05 09:03:55;;;;;;;1.10;0.60;;;17.70;1.00;;;;;;5114298;28;20182;-68
2023/09/05 09:06:26;;;;;;;2.13;0.57;;;17.50;1.00;;;;;;5114622;28;20523;-68
2023/09/05 09:08:55;;;;;;;1.40;0.70;;;17.40;1.00;;;;;;5114762;28;20639;-68
2023/09/05 09:11:24;;;;;;;0.90;0.80;;;17.30;1.00;;;;;;5114472;28;20708;-67
2023/09/05 09:13:59;;;;;;;2.20;1.00;;;17.20;1.00;;;;;;5113865;28;20252;-67
2023/09/05 09:16:27;;;;;;;2.60;0.90;;;17.10;1.00;;;;;;5114741;28;20205;-68
2023/09/05 09:19:03;;;;;;;4.10;1.07;;;17.00;1.00;;;;;;5114687;28;20512;-68
2023/09/05 09:21:32;;;;;;;1.23;0.80;;;16.90;1.00;;;;;;5114225;28;20209;-69
2023/09/05 09:24:07;;;;;;;1.90;0.90;;;16.80;1.00;;;;;;5113963;28;20222;-67
2023/09/05 09:26:36;;;;;;;2.00;0.80;;;16.70;1.00;;;;;;5096475;28;20185;-68
2023/09/05 09:29:08;;;;;;;2.20;0.90;;;16.80;1.10;;;;;;5114125;28;20209;-69
2023/09/05 09:31:40;;;;;;;4.67;1.20;;;16.70;1.40;;;;;;5114778;28;20557;-68
2023/09/05 09:34:13;;;;;;;6.50;1.20;;;16.60;1.60;;;;;;5113226;28;20190;-68
2023/09/05 09:36:40;;;;;;;3.07;1.50;;;16.60;2.30;;;;;;5115753;27;20190;-69
2023/09/05 09:39:12;;;;;;;2.07;1.40;;;16.60;2.10;;;;;;5114830;28;20767;-68
2023/09/05 09:41:45;;;;;;;1.27;0.90;;;16.50;2.70;;;;;;5114474;28;20185;-68
2023/09/05 09:44:28;;;;;;;2.03;1.50;;;16.40;2.90;;;;;;5114341;28;20182;-68
2023/09/05 09:46:58;;;;;;;3.17;1.40;;;16.40;3.70;;;;;;5114265;28;20206;-69
2023/09/05 09:49:28;;;;;;;3.40;1.60;;;16.20;5.30;;;;;;5114425;28;20220;-68
2023/09/05 09:51:58;;;;;;;3.60;1.60;;;16.20;6.50;;;;;;5116005;28;20183;-68
2023/09/05 09:54:34;;;;;;;2.33;1.50;;;16.10;6.00;;;;;;5115913;28;20631;-68
2023/09/05 09:57:04;;;;;;;2.27;1.40;;;16.10;6.90;;;;;;5116053;28;20265;-71
2023/09/05 09:59:36;;;;;;;3.67;1.60;;;16.00;7.50;;;;;;5116053;28;20577;-69
2023/09/05 10:02:11;;;;;;;2.50;1.40;;;16.00;8.90;;;;;;5115966;28;20170;-69
2023/09/05 10:04:42;;;;;;;1.50;1.10;;;15.80;10.40;;;;;;5115595;28;20632;-69
2023/09/05 10:07:14;;;;;;;3.13;1.30;;;15.70;12.00;;;;;;5115640;28;20171;-69
2023/09/05 10:09:44;;;;;;;3.70;1.53;;;15.60;13.30;;;;;;5097218;28;20213;-68
2023/09/05 10:12:12;;;;;;;2.97;1.27;;;15.50;16.50;;;;;;5115194;28;20729;-69
2023/09/05 10:14:42;;;;;;;2.53;0.87;;;15.40;16.90;;;;;;5115399;28;20174;-68
2023/09/05 10:17:14;;;;;;;3.43;1.20;;;15.20;17.40;;;;;;5115500;28;20178;-69
2023/09/05 10:19:44;;;;;;;2.17;1.30;;;15.10;18.00;;;;;;5115147;28;20342;-67
2023/09/05 10:22:16;;;;;;;3.70;1.33;;;15.00;18.70;;;;;;5115423;28;20174;-68
2023/09/05 10:24:47;;;;;;;3.03;1.13;;;15.00;18.60;;;;;;5114967;28;20234;-68
2023/09/05 10:27:16;;;;;;;3.60;1.20;;;15.20;17.80;;;;;;5115107;28;20230;-68
2023/09/05 10:29:48;;;;;;;3.40;1.10;;;15.30;18.30;;;;;;5115912;28;20202;-69
2023/09/05 10:32:22;;;;;;;4.13;1.20;;;15.50;18.10;;;;;;5114976;28;20544;-68
2023/09/05 10:35:01;;;;;;;4.03;1.30;;;15.50;18.90;;;;;;5115289;28;20204;-70
2023/09/05 10:37:44;;;;;;;1.93;1.13;;;15.50;19.90;;;;;;5114709;28;20327;-68
2023/09/05 10:40:12;;;;;;;4.87;0.90;;;15.40;20.40;;;;;;5115330;28;20184;-68
2023/09/05 10:42:51;;;;;;;4.80;1.27;;;15.30;21.80;;;;;;5096995;28;20186;-70
2023/09/05 10:45:25;;;;;;;2.20;1.03;;;15.10;23.80;;;;;;5114827;28;20174;-68
2023/09/05 10:48:02;;;;;;;2.93;0.97;;;15.00;25.50;;;;;;5113836;28;20178;-69
2023/09/05 10:50:30;;;;;;;1.57;0.90;;;14.80;27.60;;;;;;5114300;28;20260;-70
2023/09/05 10:53:12;;;;;;;3.10;1.30;;;14.80;30.00;;;;;;5114411;28;20180;-68
2023/09/05 10:55:46;;;;;;;2.03;1.00;;;14.60;31.30;;;;;;5117455;27;20264;-68
2023/09/05 10:58:43;;;;;;;1.83;1.10;;;14.50;33.70;;;;;;5114656;28;20190;-70
2023/09/05 11:01:32;;;;;;;3.37;1.20;;;14.40;36.30;;;;;;5114668;28;20171;-70
2023/09/05 11:04:10;;;;;;;2.03;1.07;;;14.20;38.90;;;;;;5114154;28;20285;-69
2023/09/05 11:06:42;;;;;;;1.77;1.23;;;14.20;39.50;;;;;;5117055;27;20192;-71
2023/09/05 11:09:10;;;;;;;1.50;1.10;;;14.10;40.80;;;;;;5114324;28;20198;-69
2023/09/05 11:11:45;;;;;;;1.60;1.20;;;14.10;43.00;;;;;;5114251;28;20188;-69
2023/09/05 11:14:12;;;;;;;1.50;0.93;;;14.00;48.50;;;;;;5114267;28;20557;-69
2023/09/05 11:16:49;;;;;;;2.27;1.47;;;13.90;52.00;;;;;;5130550;27;20196;-68
2023/09/05 11:20:00;;;;;;;1.47;1.10;;;13.90;56.10;;;;;;5134750;27;20547;-69
2023/09/05 11:22:29;;;;;;;3.60;1.20;;;13.80;61.10;;;;;;5130033;27;20243;-69
2023/09/05 11:25:01;;;;;;;1.50;1.00;;;13.70;67.60;;;;;;5134417;27;20199;-70
2023/09/05 11:27:32;;;;;;;2.70;1.40;;;13.70;75.60;;;;;;5134440;27;20642;-70
2023/09/05 11:30:09;;;;;;;2.67;1.50;;;13.70;80.80;;;;;;5134623;27;20292;-68
2023/09/05 11:32:39;;;;;;;3.90;1.30;;;13.70;88.80;;;;;;5134295;27;20169;-68
2023/09/05 11:35:10;;;;;;;2.97;1.50;;;13.70;92.40;;;;;;5134560;27;20204;-68
2023/09/05 11:37:37;;;;;;;2.80;1.37;;;13.60;94.20;;;;;;5134424;27;20177;-68
2023/09/05 11:40:20;;;;;;;3.33;1.60;;;13.60;94.70;;;;;;5134477;27;20234;-68
2023/09/05 11:42:47;;;;;;;2.17;1.30;;;13.60;96.20;;;;;;5122222;27;20292;-67
2023/09/05 11:45:19;;;;;;;2.70;1.20;;;13.60;98.20;;;;;;5113505;28;20537;-68
2023/09/05 11:47:48;;;;;;;5.00;1.50;;;13.60;98.30;;;;;;5090167;28;20194;-68
2023/09/05 11:50:18;;;;;;;4.47;1.37;;;13.50;99.90;;;;;;5111537;28;20213;-68
2023/09/05 11:52:48;;;;;;;2.13;1.10;;;13.50;99.90;;;;;;5111381;28;20606;-68
2023/09/05 11:55:16;;;;;;;3.97;1.33;;;13.40;99.90;;;;;;5111718;28;20185;-68
2023/09/05 11:57:44;;;;;;;4.63;1.60;;;13.40;99.90;;;;;;5111713;28;20217;-68
2023/09/05 12:00:17;;;;;;;3.70;1.53;;;13.30;99.90;;;;;;5111752;28;20181;-70
2023/09/05 12:02:45;;;;;;;3.13;1.50;;;13.20;99.90;;;;;;5110896;28;20185;-69
2023/09/05 12:05:15;;;;;;;2.67;1.40;;;13.10;99.90;;;;;;5111671;28;20182;-69
2023/09/05 12:07:49;;;;;;;5.17;1.20;;;13.10;99.90;;;;;;5111718;28;20636;-68
2023/09/05 12:10:17;;;;;;;3.00;1.30;;;13.10;99.90;;;;;;5111318;28;20210;-67
2023/09/05 12:12:56;;;;;;;5.83;1.40;;;13.10;99.90;;;;;;5110844;28;20193;-66
2023/09/05 12:15:34;;;;;;;2.90;1.37;;;13.00;99.90;;;;;;5111319;28;20552;-68
2023/09/05 12:18:04;;;;;;;3.40;1.33;;;13.00;99.90;;;;;;5111340;28;20174;-68
2023/09/05 12:20:34;;;;;;;1.77;1.10;;;13.00;99.90;;;;;;5111734;28;20193;-69
2023/09/05 12:23:05;;;;;;;4.53;1.17;;;12.90;99.90;;;;;;5111346;28;20263;-68
2023/09/05 12:25:47;;;;;;;1.83;1.10;;;12.90;99.90;;;;;;5110977;28;20306;-69
2023/09/05 12:28:16;;;;;;;5.80;1.40;;;12.80;99.90;;;;;;5111467;28;20185;-68
2023/09/05 12:30:44;;;;;;;3.37;1.53;;;12.80;99.90;;;;;;5110960;28;20227;-67
2023/09/05 12:33:11;;;;;;;3.87;1.20;;;12.70;99.90;;;;;;5110805;28;20183;-68
2023/09/05 12:35:38;;;;;;;2.00;1.30;;;12.60;99.90;;;;;;5111621;28;20184;-67
2023/09/05 12:38:07;;;;;;;2.47;1.30;;;12.50;99.90;;;;;;5110989;28;20261;-68
2023/09/05 12:40:34;;;;;;;2.93;1.20;;;12.50;99.90;;;;;;5108087;28;20662;-68
2023/09/05 12:43:02;;;;;;;4.87;1.63;;;12.40;99.90;;;;;;5094034;28;20205;-67
2023/09/05 12:45:31;;;;;;;4.57;1.37;;;12.40;99.90;;;;;;5112406;28;20178;-67
2023/09/05 12:47:58;;;;;;;2.67;1.37;;;12.30;99.90;;;;;;5112092;28;20226;-67
2023/09/05 12:50:30;;;;;;;4.10;1.43;;;12.30;99.90;;;;;;5112903;28;20209;-66
2023/09/05 12:53:05;;;;;;;2.57;1.07;;;12.20;99.90;;;;;;5112668;28;20211;-67
2023/09/05 12:55:33;;;;;;;4.17;1.20;;;12.20;99.90;;;;;;5112879;28;20287;-67
2023/09/05 12:58:06;;;;;;;2.57;1.30;;;12.10;99.90;;;;;;5112842;28;20173;-66
2023/09/05 13:00:34;;;;;;;4.33;1.60;;;12.10;99.90;;;;;;5111901;28;20202;-67
2023/09/05 13:03:05;;;;;;;2.50;1.17;;;12.00;99.90;;;;;;5112233;28;20182;-66
2023/09/05 13:05:33;;;;;;;7.47;2.03;;;11.90;99.90;;;;;;5112445;28;20182;-67
2023/09/05 13:08:01;;;;;;;2.77;1.30;;;11.90;99.90;;;;;;5112612;28;20541;-67
2023/09/05 13:10:29;;;;;;;6.40;1.33;;;11.80;99.90;;;;;;5111786;28;20239;-67
2023/09/05 13:12:56;;;;;;;4.50;1.60;;;11.90;99.90;;;;;;5115207;28;20185;-68
2023/09/05 13:15:24;;;;;;;3.40;1.60;;;11.90;99.90;;;;;;5116304;28;20209;-68
2023/09/05 13:17:52;;;;;;;3.00;1.60;;;11.80;99.90;;;;;;5115873;28;20181;-69
2023/09/05 13:20:20;;;;;;;4.10;1.60;;;11.80;99.90;;;;;;5116322;28;20182;-68
2023/09/05 13:22:48;;;;;;;5.33;1.67;;;11.80;99.90;;;;;;5115856;28;20208;-68
2023/09/05 13:25:19;;;;;;;3.10;1.70;;;11.70;99.90;;;;;;5116131;28;20185;-67